createdAt,value
2018-03-14T00:00:02.510Z,6.6
2018-03-14T00:15:03.180Z,6.4
2018-03-14T00:30:02.909Z,5.7
2018-03-14T00:45:02.369Z,5.4
2018-03-14T01:00:02.443Z,5.3
2018-03-14T01:15:02.899Z,5.3
2018-03-14T01:30:02.325Z,5.2
2018-03-14T01:45:02.785Z,5.2
2018-03-14T02:00:03.048Z,5.2
2018-03-14T02:15:02.489Z,5.2
2018-03-14T02:30:02.924Z,5.2
2018-03-14T02:45:02.275Z,5.1
2018-03-14T03:00:02.722Z,5.1
2018-03-14T03:15:03.002Z,5.1
2018-03-14T03:30:02.471Z,5.1
2018-03-14T03:45:02.927Z,4.9
2018-03-14T04:00:03.213Z,4.8
2018-03-14T04:15:02.598Z,4.7
2018-03-14T04:30:03.031Z,4.6
2018-03-14T04:45:02.518Z,4.5
2018-03-14T05:00:03.113Z,4.4
2018-03-14T05:15:02.515Z,4.4
2018-03-14T05:30:02.995Z,4.4
2018-03-14T05:45:02.398Z,4.2
2018-03-14T06:00:02.772Z,4.2
2018-03-14T06:15:03.099Z,4.3
2018-03-14T06:30:02.506Z,4.4
2018-03-14T06:45:02.812Z,4.6
2018-03-14T07:00:03.582Z,4.7
2018-03-14T07:15:02.907Z,4.9
2018-03-14T07:30:02.346Z,5.1
2018-03-14T07:45:02.830Z,5.1
2018-03-14T08:00:03.141Z,4.9
2018-03-14T08:15:02.631Z,5.1
2018-03-14T08:30:03.229Z,5.6
2018-03-14T08:45:02.679Z,5.5
2018-03-14T09:00:03.204Z,5.6
2018-03-14T09:15:02.591Z,5.8
2018-03-14T09:30:02.984Z,5.8
2018-03-14T09:45:02.357Z,5.7
2018-03-14T10:00:02.794Z,5.4
2018-03-14T10:15:03.106Z,5.6
2018-03-14T10:30:02.498Z,5.6
2018-03-14T10:45:02.920Z,5.6
2018-03-14T11:00:03.262Z,5.8
2018-03-14T11:15:02.527Z,5.9
2018-03-14T11:30:03.162Z,6.2
2018-03-14T11:45:02.518Z,6.2
2018-03-14T12:00:02.958Z,6.4
2018-03-14T12:15:02.325Z,6.3
2018-03-14T12:30:06.342Z,6.3
2018-03-14T12:45:02.800Z,6.3
2018-03-14T13:00:03.085Z,6.6
2018-03-14T13:15:02.478Z,7.1
2018-03-14T13:30:02.909Z,7.1
2018-03-14T13:45:03.259Z,7.4
2018-03-14T14:00:03.116Z,8.1
2018-03-14T14:15:03.473Z,8.1
2018-03-14T14:30:03.190Z,7.7
2018-03-14T14:45:12.178Z,7.9
2018-03-14T15:00:03.640Z,8
2018-03-14T15:15:03.038Z,8.2
2018-03-14T15:30:45.945Z,7.6
2018-03-14T15:45:02.286Z,7.8
2018-03-14T16:00:03.208Z,8
2018-03-14T16:15:04.717Z,7.8
2018-03-14T16:30:03.616Z,7.5
2018-03-14T16:45:03.511Z,7.1
2018-03-14T17:00:03.831Z,6.6
2018-03-14T17:15:03.137Z,6.3
2018-03-14T17:30:02.630Z,5.6
2018-03-14T17:45:03.388Z,5.5
2018-03-14T18:00:03.118Z,5.4
2018-03-14T18:15:02.610Z,5.3
2018-03-14T18:30:03.370Z,5.1
2018-03-14T18:45:03.405Z,4.9
2018-03-14T19:00:03.826Z,4.6
2018-03-14T19:15:04.127Z,4.1
2018-03-14T19:30:02.462Z,3.9
2018-03-14T19:45:02.735Z,3.9
2018-03-14T20:00:02.984Z,4
2018-03-14T20:15:02.282Z,4.2
2018-03-14T20:30:02.609Z,4.1
2018-03-14T20:45:02.901Z,3.9
2018-03-14T21:00:03.154Z,3.7
2018-03-14T21:15:02.387Z,3.4
2018-03-14T21:30:02.712Z,3.2
2018-03-14T21:45:02.938Z,3
2018-03-14T22:00:03.226Z,2.8
2018-03-14T22:15:02.465Z,2.2
2018-03-14T22:30:02.874Z,2.2
2018-03-14T22:45:03.111Z,2.1
2018-03-14T23:00:02.370Z,2
2018-03-14T23:15:02.641Z,1.8
2018-03-14T23:30:02.978Z,1.6
2018-03-14T23:45:02.282Z,1.2
